createdAt,value
2023-02-22T00:01:02.129Z,43.57
2023-02-22T00:03:35.046Z,40.57
2023-02-22T00:06:05.016Z,39.90
2023-02-22T00:08:35.032Z,37.67
2023-02-22T00:11:16.720Z,39.53
2023-02-22T00:13:45.044Z,40.97
2023-02-22T00:16:25.845Z,40.63
2023-02-22T00:18:53.445Z,38.13
2023-02-22T00:21:20.348Z,42.47
2023-02-22T00:23:48.298Z,39.90
2023-02-22T00:26:20.463Z,44.63
2023-02-22T00:28:54.583Z,42.40
2023-02-22T00:31:22.238Z,44.10
2023-02-22T00:33:49.010Z,41.13
2023-02-22T00:36:16.114Z,41.27
2023-02-22T00:38:42.998Z,40.87
2023-02-22T00:41:10.327Z,42.67
2023-02-22T00:43:39.277Z,40.47
2023-02-22T00:46:06.431Z,42.53
2023-02-22T00:48:33.231Z,39.80
2023-02-22T00:51:00.116Z,39.93
2023-02-22T00:53:27.000Z,40.57
2023-02-22T00:55:54.407Z,43.17
2023-02-22T00:58:23.785Z,44.10
2023-02-22T01:00:50.801Z,47.70
2023-02-22T01:03:20.119Z,50.93
2023-02-22T01:05:50.852Z,43.00
2023-02-22T01:08:17.969Z,47.93
2023-02-22T01:10:45.500Z,42.30
2023-02-22T01:13:13.226Z,43.93
2023-02-22T01:15:42.120Z,39.10
2023-02-22T01:18:09.615Z,42.90
2023-02-22T01:20:36.631Z,39.53
2023-02-22T01:23:06.792Z,38.43
2023-02-22T01:25:34.748Z,40.63
2023-02-22T01:28:03.063Z,35.50
2023-02-22T01:30:35.038Z,39.07
2023-02-22T01:33:04.072Z,42.17
2023-02-22T01:35:37.220Z,43.07
2023-02-22T01:38:04.789Z,35.97
2023-02-22T01:40:38.416Z,45.63
2023-02-22T01:43:17.251Z,38.07
2023-02-22T01:45:57.408Z,41.60
2023-02-22T01:48:45.768Z,40.93
2023-02-22T01:51:37.816Z,45.17
2023-02-22T01:54:15.293Z,45.20
2023-02-22T01:56:50.544Z,43.00
2023-02-22T01:59:18.666Z,44.77
2023-02-22T02:01:45.698Z,43.40
2023-02-22T02:04:17.849Z,43.63
2023-02-22T02:06:48.422Z,47.53
2023-02-22T02:09:29.162Z,45.00
2023-02-22T02:12:02.779Z,43.53
2023-02-22T02:14:32.023Z,45.70
2023-02-22T02:17:01.553Z,48.97
2023-02-22T02:19:53.191Z,47.20
2023-02-22T02:22:25.497Z,49.07
2023-02-22T02:25:18.366Z,50.10
2023-02-22T02:28:03.805Z,49.90
2023-02-22T02:30:54.138Z,49.80
2023-02-22T02:33:31.817Z,52.27
2023-02-22T02:36:10.995Z,51.00
2023-02-22T02:38:59.330Z,48.23
2023-02-22T02:41:32.090Z,51.53
2023-02-22T02:44:07.718Z,49.47
2023-02-22T02:46:46.806Z,57.70
2023-02-22T02:49:22.271Z,52.30
2023-02-22T02:51:53.845Z,51.17
2023-02-22T02:54:23.314Z,49.87
2023-02-22T02:56:51.175Z,49.47
2023-02-22T02:59:28.106Z,55.17
2023-02-22T03:02:03.120Z,48.63
2023-02-22T03:04:33.294Z,49.70
2023-02-22T03:07:15.038Z,54.43
2023-02-22T03:09:55.032Z,56.43
2023-02-22T03:12:33.835Z,53.87
2023-02-22T03:15:14.747Z,50.10
2023-02-22T03:17:56.149Z,58.53
2023-02-22T03:20:31.798Z,63.73
2023-02-22T03:23:10.647Z,53.40
2023-02-22T03:25:43.234Z,58.47
2023-02-22T03:28:12.998Z,61.50
2023-02-22T03:30:48.887Z,72.90
2023-02-22T03:33:28.820Z,89.43
2023-02-22T03:36:02.825Z,125.63
2023-02-22T03:38:33.392Z,89.57
2023-02-22T03:41:02.277Z,74.40
2023-02-22T03:43:46.051Z,62.70
2023-02-22T03:46:14.543Z,63.37
2023-02-22T03:48:54.619Z,67.53
2023-02-22T03:51:22.367Z,99.80
2023-02-22T03:53:49.531Z,109.43
2023-02-22T03:56:35.836Z,95.73
2023-02-22T03:59:06.358Z,173.50
2023-02-22T04:01:33.608Z,141.83
2023-02-22T04:04:01.039Z,133.97
2023-02-22T04:06:31.361Z,140.50
2023-02-22T04:08:58.159Z,85.67
2023-02-22T04:11:28.042Z,100.27
2023-02-22T04:13:58.423Z,83.50
2023-02-22T04:16:25.254Z,88.87
2023-02-22T04:18:54.151Z,130.07
2023-02-22T04:21:20.929Z,99.80
2023-02-22T04:23:50.580Z,111.83
2023-02-22T04:26:18.007Z,177.17
2023-02-22T04:28:44.783Z,123.73
2023-02-22T04:31:14.313Z,184.50
2023-02-22T04:33:41.309Z,104.70
2023-02-22T04:36:08.924Z,78.93
2023-02-22T04:38:38.906Z,107.27
2023-02-22T04:41:05.951Z,88.77
2023-02-22T04:43:32.733Z,95.73
2023-02-22T04:45:59.478Z,91.83
2023-02-22T04:48:26.313Z,94.40
2023-02-22T04:50:53.154Z,143.63
2023-02-22T04:53:19.916Z,112.87
2023-02-22T04:55:47.128Z,157.10
2023-02-22T04:58:14.058Z,132.63
2023-02-22T05:00:40.850Z,82.93
2023-02-22T05:03:07.631Z,149.03
2023-02-22T05:05:34.464Z,124.63
2023-02-22T05:08:01.363Z,140.23
2023-02-22T05:10:28.405Z,100.10
2023-02-22T05:12:55.368Z,146.97
2023-02-22T05:15:23.110Z,124.00
2023-02-22T05:17:50.068Z,120.93
2023-02-22T05:20:28.753Z,123.40
2023-02-22T05:23:01.682Z,157.23
2023-02-22T05:25:29.034Z,100.37
2023-02-22T05:28:03.276Z,110.97
2023-02-22T05:30:33.227Z,110.73
2023-02-22T05:33:00.955Z,124.57
2023-02-22T05:35:31.085Z,122.77
2023-02-22T05:37:59.807Z,124.50
2023-02-22T05:40:27.655Z,100.87
2023-02-22T05:42:55.295Z,114.87
2023-02-22T05:45:24.767Z,87.63
2023-02-22T05:47:54.208Z,70.10
2023-02-22T05:50:24.574Z,74.23
2023-02-22T05:52:54.010Z,75.83
2023-02-22T05:55:25.819Z,46.47
2023-02-22T05:57:53.299Z,70.90
2023-02-22T06:00:32.814Z,59.97
2023-02-22T06:03:00.835Z,59.17
2023-02-22T06:05:28.125Z,61.57
2023-02-22T06:07:56.570Z,54.47
2023-02-22T06:10:24.140Z,61.97
2023-02-22T06:12:51.857Z,48.00
2023-02-22T06:15:21.382Z,49.20
2023-02-22T06:17:48.768Z,50.30
2023-02-22T06:20:18.092Z,49.50
2023-02-22T06:22:50.991Z,58.50
2023-02-22T06:25:21.195Z,54.40
2023-02-22T06:27:48.294Z,55.97
2023-02-22T06:30:17.564Z,47.70
2023-02-22T06:32:47.299Z,63.20
2023-02-22T06:35:15.690Z,47.93
2023-02-22T06:37:45.620Z,49.77
2023-02-22T06:40:13.079Z,49.40
2023-02-22T06:42:43.054Z,47.23
2023-02-22T06:45:10.539Z,48.87
2023-02-22T06:47:44.082Z,52.73
2023-02-22T06:50:22.510Z,58.57
2023-02-22T06:52:50.390Z,53.67
2023-02-22T06:55:29.712Z,48.57
2023-02-22T06:57:56.571Z,54.37
2023-02-22T07:00:25.260Z,52.07
2023-02-22T07:02:53.026Z,64.87
2023-02-22T07:05:24.475Z,57.77
2023-02-22T07:07:52.872Z,55.27
2023-02-22T07:10:24.403Z,50.93
2023-02-22T07:12:52.557Z,57.37
2023-02-22T07:15:28.236Z,47.87
2023-02-22T07:17:55.346Z,55.67
2023-02-22T07:20:23.098Z,50.23
2023-02-22T07:22:50.249Z,60.50
2023-02-22T07:25:17.351Z,56.67
2023-02-22T07:27:44.283Z,61.43
2023-02-22T07:30:25.365Z,67.80
2023-02-22T07:32:57.881Z,59.53
2023-02-22T07:35:30.203Z,55.07
2023-02-22T07:37:57.353Z,62.27
2023-02-22T07:40:26.112Z,54.60
2023-02-22T07:43:21.930Z,62.83
2023-02-22T07:45:50.241Z,59.33
2023-02-22T07:48:18.636Z,54.90
2023-02-22T07:50:45.655Z,59.70
2023-02-22T07:53:18.418Z,63.33
2023-02-22T07:55:45.363Z,64.13
2023-02-22T07:58:15.769Z,56.90
2023-02-22T08:00:44.232Z,60.40
2023-02-22T08:03:13.490Z,53.93
2023-02-22T08:05:43.831Z,55.27
2023-02-22T08:08:10.732Z,59.30
2023-02-22T08:10:37.644Z,61.67
2023-02-22T08:13:05.902Z,56.37
2023-02-22T08:15:35.810Z,52.90
2023-02-22T08:18:05.171Z,62.80
2023-02-22T08:20:32.111Z,65.77
2023-02-22T08:22:59.180Z,56.23
2023-02-22T08:25:28.787Z,60.37
2023-02-22T08:28:12.411Z,64.37
2023-02-22T08:30:40.798Z,63.17
2023-02-22T08:33:07.915Z,58.47
2023-02-22T08:35:37.163Z,54.80
2023-02-22T08:38:06.045Z,53.80
2023-02-22T08:40:36.273Z,59.03
2023-02-22T08:43:04.497Z,57.80
2023-02-22T08:45:31.444Z,58.10
2023-02-22T08:47:59.577Z,56.90
2023-02-22T08:50:33.699Z,55.37
2023-02-22T08:53:02.610Z,57.17
2023-02-22T08:55:33.907Z,57.17
2023-02-22T08:58:05.533Z,56.27
2023-02-22T09:00:33.955Z,56.50
2023-02-22T09:03:02.628Z,50.70
2023-02-22T09:05:31.483Z,49.07
2023-02-22T09:07:58.827Z,52.57
2023-02-22T09:10:28.339Z,52.67
2023-02-22T09:12:55.968Z,54.47
2023-02-22T09:15:23.912Z,48.47
2023-02-22T09:17:51.574Z,50.80
2023-02-22T09:20:19.931Z,53.60
2023-02-22T09:22:47.900Z,44.07
2023-02-22T09:25:17.236Z,47.37
2023-02-22T09:27:48.216Z,43.73
2023-02-22T09:30:36.926Z,51.80
2023-02-22T09:33:16.392Z,48.70
2023-02-22T09:35:47.409Z,47.87
2023-02-22T09:38:17.892Z,50.80
2023-02-22T09:41:03.379Z,47.93
2023-02-22T09:43:33.342Z,56.13
2023-02-22T09:46:03.166Z,51.87
2023-02-22T09:48:33.888Z,52.43
2023-02-22T09:51:03.997Z,44.30
2023-02-22T09:53:41.901Z,44.53
2023-02-22T09:56:12.037Z,40.43
2023-02-22T09:58:46.368Z,46.67
2023-02-22T10:01:15.983Z,38.43
2023-02-22T10:04:00.894Z,40.43
2023-02-22T10:06:29.765Z,40.20
2023-02-22T10:09:01.003Z,41.67
2023-02-22T10:12:01.007Z,39.73
2023-02-22T10:14:43.850Z,41.27
2023-02-22T10:17:24.526Z,39.47
2023-02-22T10:20:15.868Z,36.63
2023-02-22T10:22:51.787Z,36.63
2023-02-22T10:25:22.169Z,37.07
2023-02-22T10:28:09.944Z,35.23
2023-02-22T10:30:43.828Z,39.40
2023-02-22T10:33:14.568Z,36.60
2023-02-22T10:35:42.662Z,33.67
2023-02-22T10:38:23.696Z,29.83
2023-02-22T10:41:17.535Z,29.23
2023-02-22T10:43:44.715Z,32.87
2023-02-22T10:46:17.216Z,32.33
2023-02-22T10:48:48.220Z,28.43
2023-02-22T10:51:15.079Z,26.23
2023-02-22T10:53:41.955Z,27.67
2023-02-22T10:56:21.097Z,31.33
2023-02-22T10:59:04.446Z,32.67
2023-02-22T11:01:31.397Z,26.97
2023-02-22T11:04:19.671Z,30.70
2023-02-22T11:07:17.257Z,26.80
2023-02-22T11:10:05.145Z,27.50
2023-02-22T11:12:40.603Z,27.73
2023-02-22T11:15:29.522Z,26.07
2023-02-22T11:18:01.978Z,22.80
2023-02-22T11:20:38.512Z,26.00
2023-02-22T11:23:08.292Z,26.27
2023-02-22T11:25:37.488Z,24.60
2023-02-22T11:28:15.190Z,23.80
2023-02-22T11:30:44.563Z,22.43
2023-02-22T11:33:26.551Z,22.60
2023-02-22T11:35:59.432Z,23.37
2023-02-22T11:38:36.850Z,23.17
2023-02-22T11:41:16.383Z,24.97
2023-02-22T11:43:48.622Z,23.43
2023-02-22T11:46:37.483Z,22.53
2023-02-22T11:49:06.777Z,23.63
2023-02-22T11:52:03.930Z,23.03
2023-02-22T11:55:09.904Z,26.67
2023-02-22T11:57:39.260Z,25.10
2023-02-22T12:00:48.335Z,23.73
2023-02-22T12:03:40.542Z,22.67
2023-02-22T12:06:40.441Z,24.27
2023-02-22T12:09:27.401Z,23.00
2023-02-22T12:12:02.346Z,24.63
2023-02-22T12:15:00.385Z,25.33
2023-02-22T12:17:36.562Z,22.07
2023-02-22T12:20:15.482Z,21.73
2023-02-22T12:23:00.977Z,20.67
2023-02-22T12:25:38.951Z,20.67
2023-02-22T12:28:25.125Z,20.83
2023-02-22T12:31:07.231Z,21.17
2023-02-22T12:33:55.286Z,21.10
2023-02-22T12:36:28.495Z,20.77
2023-02-22T12:39:07.306Z,20.47
2023-02-22T12:41:48.508Z,21.90
2023-02-22T12:44:20.646Z,20.53
2023-02-22T12:46:53.498Z,20.07
2023-02-22T12:49:41.589Z,18.90
2023-02-22T12:52:40.007Z,22.00
2023-02-22T12:55:11.227Z,19.83
2023-02-22T12:57:58.632Z,19.83
2023-02-22T13:00:42.763Z,23.77
2023-02-22T13:03:39.638Z,20.27
2023-02-22T13:06:06.501Z,21.63
2023-02-22T13:08:53.201Z,23.10
2023-02-22T13:11:43.710Z,19.63
2023-02-22T13:14:33.066Z,23.87
2023-02-22T13:17:20.894Z,23.00
2023-02-22T13:20:02.756Z,22.10
2023-02-22T13:22:45.904Z,21.67
2023-02-22T13:25:21.570Z,19.87
2023-02-22T13:27:59.474Z,21.80
2023-02-22T13:30:48.926Z,20.50
2023-02-22T13:33:29.775Z,20.17
2023-02-22T13:36:22.638Z,21.70
2023-02-22T13:39:17.020Z,20.80
2023-02-22T13:42:09.674Z,21.80
2023-02-22T13:45:13.725Z,21.13
2023-02-22T13:48:18.838Z,20.03
2023-02-22T13:51:09.128Z,23.20
2023-02-22T13:53:47.132Z,27.53
2023-02-22T13:56:15.628Z,25.27
2023-02-22T13:58:58.964Z,22.60
2023-02-22T14:01:48.338Z,24.53
2023-02-22T14:04:29.285Z,23.87
2023-02-22T14:07:03.888Z,24.93
2023-02-22T14:09:55.360Z,25.63
2023-02-22T14:12:31.014Z,24.20
2023-02-22T14:15:18.760Z,22.73
2023-02-22T14:18:04.027Z,24.43
2023-02-22T14:20:36.851Z,20.80
2023-02-22T14:23:33.662Z,24.07
2023-02-22T14:26:25.952Z,26.10
2023-02-22T14:28:57.244Z,22.80
2023-02-22T14:31:37.087Z,23.77
2023-02-22T14:34:07.670Z,25.10
2023-02-22T14:36:56.357Z,23.37
2023-02-22T14:39:40.567Z,25.43
2023-02-22T14:42:21.982Z,24.03
2023-02-22T14:44:53.631Z,23.57
2023-02-22T14:47:32.040Z,26.63
2023-02-22T14:50:12.905Z,22.03
2023-02-22T14:52:46.433Z,24.60
2023-02-22T14:55:26.540Z,23.77
2023-02-22T14:57:59.599Z,26.03
2023-02-22T15:00:37.577Z,24.00
2023-02-22T15:03:05.048Z,28.30
2023-02-22T15:05:38.617Z,24.70
2023-02-22T15:08:08.041Z,23.57
2023-02-22T15:10:44.202Z,29.83
2023-02-22T15:13:26.681Z,25.73
2023-02-22T15:16:01.737Z,22.23
2023-02-22T15:18:43.119Z,27.40
2023-02-22T15:21:19.631Z,26.27
2023-02-22T15:23:55.926Z,26.63
2023-02-22T15:26:33.064Z,28.57
2023-02-22T15:29:00.113Z,29.37
2023-02-22T15:31:33.117Z,26.13
2023-02-22T15:34:18.749Z,34.57
2023-02-22T15:36:47.530Z,28.93
2023-02-22T15:39:29.420Z,26.77
2023-02-22T15:42:08.166Z,25.03
2023-02-22T15:44:40.604Z,29.37
2023-02-22T15:47:14.993Z,29.00
2023-02-22T15:49:41.770Z,29.77
2023-02-22T15:52:19.748Z,28.67
2023-02-22T15:54:49.960Z,27.10
2023-02-22T15:57:22.957Z,25.93
2023-02-22T15:59:53.648Z,26.37
2023-02-22T16:02:37.452Z,27.43
2023-02-22T16:05:09.418Z,28.83
2023-02-22T16:07:45.239Z,35.03
2023-02-22T16:10:33.447Z,28.60
2023-02-22T16:13:32.948Z,32.63
2023-02-22T16:16:24.259Z,30.93
2023-02-22T16:18:52.025Z,28.70
2023-02-22T16:21:25.847Z,31.33
2023-02-22T16:24:10.229Z,35.57
2023-02-22T16:26:41.836Z,32.47
2023-02-22T16:29:09.667Z,30.87
2023-02-22T16:31:40.351Z,34.87
2023-02-22T16:34:08.865Z,32.37
2023-02-22T16:36:45.928Z,35.03
2023-02-22T16:39:35.989Z,34.77
2023-02-22T16:42:05.272Z,36.47
2023-02-22T16:44:31.953Z,36.27
2023-02-22T16:47:00.609Z,38.40
2023-02-22T16:49:27.955Z,35.33
2023-02-22T16:51:58.859Z,38.63
2023-02-22T16:54:56.248Z,38.47
2023-02-22T16:57:31.975Z,39.77
2023-02-22T17:00:01.466Z,41.30
2023-02-22T17:02:30.969Z,44.10
2023-02-22T17:05:00.783Z,39.70
2023-02-22T17:07:30.930Z,42.07
2023-02-22T17:09:58.392Z,38.70
2023-02-22T17:12:28.333Z,47.03
2023-02-22T17:14:55.389Z,39.20
2023-02-22T17:17:22.222Z,41.33
2023-02-22T17:19:49.034Z,40.53
2023-02-22T17:22:22.713Z,42.27
2023-02-22T17:24:49.472Z,42.67
2023-02-22T17:27:16.239Z,41.90
2023-02-22T17:29:45.292Z,41.37
2023-02-22T17:32:13.042Z,42.30
2023-02-22T17:34:40.739Z,44.33
2023-02-22T17:37:07.615Z,47.23
2023-02-22T17:39:34.306Z,45.93
2023-02-22T17:42:01.106Z,48.53
2023-02-22T17:44:30.087Z,42.87
2023-02-22T17:46:57.004Z,42.67
2023-02-22T17:49:23.939Z,49.10
2023-02-22T17:51:56.582Z,48.60
2023-02-22T17:54:24.484Z,49.30
2023-02-22T17:56:53.973Z,53.53
2023-02-22T17:59:21.008Z,53.00
2023-02-22T18:01:48.981Z,49.23
2023-02-22T18:04:15.764Z,54.17
2023-02-22T18:06:42.622Z,53.07
2023-02-22T18:09:17.841Z,59.57
2023-02-22T18:11:44.649Z,63.03
2023-02-22T18:14:12.286Z,60.10
2023-02-22T18:16:39.461Z,66.97
2023-02-22T18:19:06.566Z,69.67
2023-02-22T18:21:33.347Z,76.67
2023-02-22T18:24:00.194Z,74.30
2023-02-22T18:26:27.228Z,76.20
2023-02-22T18:28:54.226Z,80.77
2023-02-22T18:31:23.312Z,84.93
2023-02-22T18:33:52.934Z,84.00
2023-02-22T18:36:23.037Z,79.07
2023-02-22T18:38:54.432Z,85.93
2023-02-22T18:41:25.414Z,84.50
2023-02-22T18:43:54.514Z,86.37
2023-02-22T18:46:25.301Z,87.93
2023-02-22T18:48:54.548Z,87.60
2023-02-22T18:51:21.651Z,86.47
2023-02-22T18:53:49.972Z,89.80
2023-02-22T18:56:21.888Z,86.40
2023-02-22T18:58:53.615Z,90.10
2023-02-22T19:01:22.047Z,92.33
2023-02-22T19:03:49.028Z,87.10
2023-02-22T19:06:17.044Z,96.47
2023-02-22T19:08:45.862Z,91.83
2023-02-22T19:11:17.982Z,89.10
2023-02-22T19:13:48.271Z,82.57
2023-02-22T19:16:19.760Z,88.63
2023-02-22T19:18:48.586Z,88.23
2023-02-22T19:21:16.322Z,88.93
2023-02-22T19:23:47.573Z,80.70
2023-02-22T19:26:20.032Z,82.53
2023-02-22T19:28:47.677Z,85.90
2023-02-22T19:31:31.321Z,86.00
2023-02-22T19:34:04.451Z,83.63
2023-02-22T19:36:36.965Z,81.87
2023-02-22T19:39:04.537Z,88.77
2023-02-22T19:41:31.579Z,80.93
2023-02-22T19:43:59.000Z,82.70
2023-02-22T19:46:25.961Z,85.70
2023-02-22T19:48:53.694Z,87.87
2023-02-22T19:51:26.822Z,85.60
2023-02-22T19:53:57.010Z,87.17
2023-02-22T19:56:27.392Z,85.00
2023-02-22T19:58:56.140Z,83.83
2023-02-22T20:01:25.461Z,87.50
2023-02-22T20:03:54.588Z,87.30
2023-02-22T20:06:26.434Z,80.57
2023-02-22T20:08:54.629Z,89.10
2023-02-22T20:11:22.733Z,89.03
2023-02-22T20:13:49.627Z,87.37
2023-02-22T20:16:16.669Z,98.07
2023-02-22T20:18:45.154Z,93.20
2023-02-22T20:21:19.170Z,88.23
2023-02-22T20:23:46.011Z,94.33
2023-02-22T20:26:24.140Z,91.10
2023-02-22T20:28:51.717Z,86.67
2023-02-22T20:31:19.763Z,93.57
2023-02-22T20:33:48.344Z,99.23
2023-02-22T20:36:19.162Z,87.43
2023-02-22T20:38:46.969Z,98.80
2023-02-22T20:41:19.567Z,93.67
2023-02-22T20:43:51.287Z,100.03
2023-02-22T20:46:18.446Z,93.53
2023-02-22T20:48:46.020Z,99.97
2023-02-22T20:51:14.164Z,94.07
2023-02-22T20:53:45.419Z,91.63
2023-02-22T20:56:17.120Z,95.10
2023-02-22T20:58:44.361Z,100.53
2023-02-22T21:01:12.957Z,95.03
2023-02-22T21:03:42.460Z,95.50
2023-02-22T21:06:17.108Z,97.77
2023-02-22T21:08:45.902Z,97.90
2023-02-22T21:11:15.166Z,90.37
2023-02-22T21:13:45.265Z,88.83
2023-02-22T21:16:29.544Z,92.27
2023-02-22T21:19:00.286Z,93.77
2023-02-22T21:21:28.334Z,88.13
2023-02-22T21:23:57.573Z,95.47
2023-02-22T21:26:29.660Z,87.33
2023-02-22T21:29:00.504Z,94.40
2023-02-22T21:31:28.618Z,90.20
2023-02-22T21:33:57.171Z,87.97
2023-02-22T21:36:25.323Z,94.03
2023-02-22T21:38:57.683Z,91.50
2023-02-22T21:41:31.453Z,86.57
2023-02-22T21:43:59.555Z,87.17
2023-02-22T21:46:28.954Z,85.67
2023-02-22T21:48:59.118Z,90.37
2023-02-22T21:51:32.365Z,82.57
2023-02-22T21:54:01.690Z,80.37
2023-02-22T21:56:29.848Z,99.23
2023-02-22T21:59:03.010Z,81.80
2023-02-22T22:01:42.695Z,84.83
2023-02-22T22:04:09.689Z,85.93
2023-02-22T22:06:36.567Z,89.50
2023-02-22T22:09:06.177Z,85.13
2023-02-22T22:11:33.022Z,83.37
2023-02-22T22:14:03.635Z,83.17
2023-02-22T22:16:30.501Z,78.93
2023-02-22T22:19:00.101Z,80.17
2023-02-22T22:21:26.931Z,83.57
2023-02-22T22:23:56.008Z,84.60
2023-02-22T22:26:27.463Z,87.40
2023-02-22T22:28:58.066Z,87.07
2023-02-22T22:31:26.455Z,96.03
2023-02-22T22:33:54.339Z,87.33
2023-02-22T22:36:22.031Z,88.80
2023-02-22T22:38:49.392Z,92.90
2023-02-22T22:41:19.712Z,94.87
2023-02-22T22:43:46.927Z,91.87
2023-02-22T22:46:16.236Z,91.53
2023-02-22T22:48:46.897Z,88.87
2023-02-22T22:51:19.913Z,81.80
2023-02-22T22:53:48.535Z,78.60
2023-02-22T22:56:26.438Z,87.20
2023-02-22T22:58:58.753Z,82.67
2023-02-22T23:01:28.210Z,81.17
2023-02-22T23:04:02.037Z,84.07
2023-02-22T23:06:40.075Z,82.73
2023-02-22T23:09:13.566Z,80.50
2023-02-22T23:11:53.439Z,81.73
2023-02-22T23:14:24.315Z,83.73
2023-02-22T23:17:03.169Z,76.87
2023-02-22T23:19:34.795Z,82.13
2023-02-22T23:22:07.020Z,78.47
2023-02-22T23:24:36.304Z,85.30
2023-02-22T23:27:07.134Z,81.40
2023-02-22T23:29:37.798Z,76.70
2023-02-22T23:32:08.832Z,79.97
2023-02-22T23:34:36.775Z,82.83
2023-02-22T23:37:03.617Z,81.77
2023-02-22T23:39:30.511Z,76.23
2023-02-22T23:41:59.280Z,78.63
2023-02-22T23:44:27.245Z,82.73
2023-02-22T23:46:55.203Z,88.30
2023-02-22T23:49:38.995Z,86.73
2023-02-22T23:52:07.350Z,75.40
2023-02-22T23:54:40.419Z,81.00
2023-02-22T23:57:08.794Z,87.53
2023-02-22T23:59:35.762Z,82.07
